sensor_id;sensor_type;location;lat;lon;timestamp;pressure;altitude;pressure_sealevel;temperature;humidity
54882;BME280;40775;51.448;4.742;2023-05-09T00:02:23;101703.53;;;16.31;100.00
54882;BME280;40775;51.448;4.742;2023-05-09T00:04:50;101700.81;;;16.26;100.00
54882;BME280;40775;51.448;4.742;2023-05-09T00:07:18;101707.03;;;16.28;100.00
54882;BME280;40775;51.448;4.742;2023-05-09T00:09:45;101699.97;;;16.29;100.00
54882;BME280;40775;51.448;4.742;2023-05-09T00:12:13;101693.66;;;16.16;100.00
54882;BME280;40775;51.448;4.742;2023-05-09T00:14:40;101694.56;;;16.18;100.00
54882;BME280;40775;51.448;4.742;2023-05-09T00:17:08;101690.09;;;16.16;100.00
54882;BME280;40775;51.448;4.742;2023-05-09T00:19:36;101696.25;;;16.13;100.00
54882;BME280;40775;51.448;4.742;2023-05-09T00:22:05;101683.00;;;16.13;100.00
54882;BME280;40775;51.448;4.742;2023-05-09T00:24:33;101687.44;;;16.14;100.00
54882;BME280;40775;51.448;4.742;2023-05-09T00:27:00;101680.34;;;16.12;100.00
54882;BME280;40775;51.448;4.742;2023-05-09T00:29:27;101684.78;;;16.14;100.00
54882;BME280;40775;51.448;4.742;2023-05-09T00:31:55;101679.47;;;16.14;100.00
54882;BME280;40775;51.448;4.742;2023-05-09T00:34:22;101677.72;;;16.13;100.00
54882;BME280;40775;51.448;4.742;2023-05-09T00:36:50;101674.16;;;16.11;100.00
54882;BME280;40775;51.448;4.742;2023-05-09T00:39:17;101660.91;;;16.10;100.00
54882;BME280;40775;51.448;4.742;2023-05-09T00:41:45;101664.41;;;16.07;100.00
54882;BME280;40775;51.448;4.742;2023-05-09T00:44:12;101666.16;;;16.06;100.00
54882;BME280;40775;51.448;4.742;2023-05-09T00:46:40;101657.34;;;16.07;100.00
54882;BME280;40775;51.448;4.742;2023-05-09T00:49:07;101666.22;;;16.11;100.00
54882;BME280;40775;51.448;4.742;2023-05-09T00:51:39;101646.72;;;16.04;100.00
54882;BME280;40775;51.448;4.742;2023-05-09T00:54:14;101646.69;;;16.01;100.00
54882;BME280;40775;51.448;4.742;2023-05-09T00:56:42;101647.59;;;16.05;100.00
54882;BME280;40775;51.448;4.742;2023-05-09T00:59:09;101645.84;;;16.04;100.00
54882;BME280;40775;51.448;4.742;2023-05-09T01:01:37;101636.06;;;15.97;100.00
54882;BME280;40775;51.448;4.742;2023-05-09T01:04:04;101636.09;;;16.03;100.00
54882;BME280;40775;51.448;4.742;2023-05-09T01:12:56;101620.16;;;15.97;100.00
54882;BME280;40775;51.448;4.742;2023-05-09T01:15:38;101605.19;;;16.02;100.00
54882;BME280;40775;51.448;4.742;2023-05-09T01:18:39;101602.56;;;16.03;100.00
54882;BME280;40775;51.448;4.742;2023-05-09T01:21:20;101606.91;;;15.97;100.00
54882;BME280;40775;51.448;4.742;2023-05-09T01:29:44;101594.50;;;15.91;100.00
54882;BME280;40775;51.448;4.742;2023-05-09T01:32:25;101583.91;;;15.91;100.00
54882;BME280;40775;51.448;4.742;2023-05-09T01:34:59;101586.56;;;15.90;100.00
54882;BME280;40775;51.448;4.742;2023-05-09T01:37:33;101584.78;;;15.90;100.00
54882;BME280;40775;51.448;4.742;2023-05-09T01:40:14;101589.22;;;15.93;100.00
54882;BME280;40775;51.448;4.742;2023-05-09T01:42:54;101578.56;;;15.88;100.00
54882;BME280;40775;51.448;4.742;2023-05-09T01:45:23;101577.75;;;15.92;100.00
54882;BME280;40775;51.448;4.742;2023-05-09T01:47:51;101576.84;;;15.89;100.00
54882;BME280;40775;51.448;4.742;2023-05-09T01:50:21;101578.53;;;15.85;100.00
54882;BME280;40775;51.448;4.742;2023-05-09T01:52:51;101579.41;;;15.84;100.00
54882;BME280;40775;51.448;4.742;2023-05-09T01:55:21;101581.16;;;15.82;100.00
54882;BME280;40775;51.448;4.742;2023-05-09T01:57:53;101574.09;;;15.84;100.00
54882;BME280;40775;51.448;4.742;2023-05-09T02:00:23;101574.09;;;15.81;100.00
54882;BME280;40775;51.448;4.742;2023-05-09T02:02:54;101569.66;;;15.82;100.00
54882;BME280;40775;51.448;4.742;2023-05-09T02:05:27;101574.91;;;15.75;100.00
54882;BME280;40775;51.448;4.742;2023-05-09T02:07:56;101570.53;;;15.79;100.00
54882;BME280;40775;51.448;4.742;2023-05-09T02:10:26;101577.63;;;15.82;100.00
54882;BME280;40775;51.448;4.742;2023-05-09T02:12:54;101570.56;;;15.82;100.00
54882;BME280;40775;51.448;4.742;2023-05-09T02:15:24;101572.28;;;15.79;100.00
54882;BME280;40775;51.448;4.742;2023-05-09T02:17:52;101565.22;;;15.76;100.00
54882;BME280;40775;51.448;4.742;2023-05-09T02:20:19;101569.63;;;15.77;100.00
54882;BME280;40775;51.448;4.742;2023-05-09T02:22:47;101569.63;;;15.77;100.00
54882;BME280;40775;51.448;4.742;2023-05-09T02:25:15;101564.28;;;15.71;100.00
54882;BME280;40775;51.448;4.742;2023-05-09T02:27:45;101561.63;;;15.69;100.00
54882;BME280;40775;51.448;4.742;2023-05-09T02:30:18;101553.66;;;15.69;100.00
54882;BME280;40775;51.448;4.742;2023-05-09T02:32:56;101551.94;;;15.71;100.00
54882;BME280;40775;51.448;4.742;2023-05-09T02:35:26;101548.38;;;15.69;100.00
54882;BME280;40775;51.448;4.742;2023-05-09T02:37:56;101538.66;;;15.67;100.00
54882;BME280;40775;51.448;4.742;2023-05-09T02:40:26;101543.94;;;15.65;100.00
54882;BME280;40775;51.448;4.742;2023-05-09T02:42:54;101539.50;;;15.64;100.00
54882;BME280;40775;51.448;4.742;2023-05-09T02:45:22;101538.59;;;15.62;100.00
54882;BME280;40775;51.448;4.742;2023-05-09T02:47:49;101530.63;;;15.61;100.00
54882;BME280;40775;51.448;4.742;2023-05-09T02:50:17;101531.53;;;15.61;100.00
54882;BME280;40775;51.448;4.742;2023-05-09T02:52:44;101527.03;;;15.57;100.00
54882;BME280;40775;51.448;4.742;2023-05-09T02:55:12;101528.81;;;15.58;100.00
54882;BME280;40775;51.448;4.742;2023-05-09T02:57:39;101517.28;;;15.55;100.00
54882;BME280;40775;51.448;4.742;2023-05-09T03:00:08;101520.81;;;15.54;100.00
54882;BME280;40775;51.448;4.742;2023-05-09T03:02:36;101516.38;;;15.53;100.00
54882;BME280;40775;51.448;4.742;2023-05-09T03:05:04;101515.53;;;15.55;100.00
54882;BME280;40775;51.448;4.742;2023-05-09T03:07:32;101507.59;;;15.57;100.00
54882;BME280;40775;51.448;4.742;2023-05-09T03:09:59;101498.75;;;15.53;100.00
54882;BME280;40775;51.448;4.742;2023-05-09T03:12:26;101500.50;;;15.53;100.00
54882;BME280;40775;51.448;4.742;2023-05-09T03:14:54;101501.38;;;15.50;100.00
54882;BME280;40775;51.448;4.742;2023-05-09T03:17:21;101501.34;;;15.49;100.00
54882;BME280;40775;51.448;4.742;2023-05-09T03:19:49;101508.44;;;15.51;100.00
54882;BME280;40775;51.448;4.742;2023-05-09T03:22:16;101506.69;;;15.53;100.00
54882;BME280;40775;51.448;4.742;2023-05-09T03:24:44;101499.63;;;15.52;100.00
54882;BME280;40775;51.448;4.742;2023-05-09T03:27:11;101499.59;;;15.51;100.00
54882;BME280;40775;51.448;4.742;2023-05-09T03:29:39;101505.81;;;15.54;100.00
54882;BME280;40775;51.448;4.742;2023-05-09T03:32:06;101499.59;;;15.51;100.00
54882;BME280;40775;51.448;4.742;2023-05-09T03:34:34;101498.69;;;15.47;100.00
54882;BME280;40775;51.448;4.742;2023-05-09T03:37:01;101500.50;;;15.51;100.00
54882;BME280;40775;51.448;4.742;2023-05-09T03:39:29;101493.44;;;15.50;100.00
54882;BME280;40775;51.448;4.742;2023-05-09T03:41:56;101481.97;;;15.51;100.00
54882;BME280;40775;51.448;4.742;2023-05-09T03:44:23;101476.69;;;15.51;100.00
54882;BME280;40775;51.448;4.742;2023-05-09T03:46:51;101459.94;;;15.55;100.00
54882;BME280;40775;51.448;4.742;2023-05-09T03:49:18;101466.97;;;15.50;100.00
54882;BME280;40775;51.448;4.742;2023-05-09T03:51:45;101460.91;;;15.59;100.00
54882;BME280;40775;51.448;4.742;2023-05-09T03:54:13;101459.94;;;15.52;100.00
54882;BME280;40775;51.448;4.742;2023-05-09T03:56:40;101456.38;;;15.49;100.00
54882;BME280;40775;51.448;4.742;2023-05-09T03:59:07;101458.16;;;15.51;100.00
54882;BME280;40775;51.448;4.742;2023-05-09T04:01:35;101452.88;;;15.51;100.00
54882;BME280;40775;51.448;4.742;2023-05-09T04:04:06;101449.38;;;15.55;100.00
54882;BME280;40775;51.448;4.742;2023-05-09T04:06:34;101450.22;;;15.53;100.00
54882;BME280;40775;51.448;4.742;2023-05-09T04:09:02;101449.34;;;15.52;100.00
54882;BME280;40775;51.448;4.742;2023-05-09T04:11:29;101448.47;;;15.53;100.00
54882;BME280;40775;51.448;4.742;2023-05-09T04:13:57;101444.97;;;15.56;100.00
54882;BME280;40775;51.448;4.742;2023-05-09T04:16:24;101451.13;;;15.53;100.00
54882;BME280;40775;51.448;4.742;2023-05-09T04:18:51;101455.53;;;15.56;100.00
54882;BME280;40775;51.448;4.742;2023-05-09T04:21:19;101444.09;;;15.57;100.00
54882;BME280;40775;51.448;4.742;2023-05-09T04:23:47;101440.63;;;15.61;100.00
54882;BME280;40775;51.448;4.742;2023-05-09T04:26:14;101431.81;;;15.60;100.00
54882;BME280;40775;51.448;4.742;2023-05-09T04:28:42;101429.19;;;15.62;100.00
54882;BME280;40775;51.448;4.742;2023-05-09T04:31:10;101428.31;;;15.61;100.00
54882;BME280;40775;51.448;4.742;2023-05-09T04:33:39;101420.31;;;15.58;100.00
54882;BME280;40775;51.448;4.742;2023-05-09T04:36:06;101423.03;;;15.64;100.00
54882;BME280;40775;51.448;4.742;2023-05-09T04:38:34;101419.44;;;15.59;100.00
54882;BME280;40775;51.448;4.742;2023-05-09T04:41:02;101413.31;;;15.62;100.00
54882;BME280;40775;51.448;4.742;2023-05-09T04:43:29;101423.97;;;15.69;100.00
54882;BME280;40775;51.448;4.742;2023-05-09T04:45:58;101414.22;;;15.65;100.00
54882;BME280;40775;51.448;4.742;2023-05-09T04:48:25;101417.78;;;15.67;100.00
54882;BME280;40775;51.448;4.742;2023-05-09T04:50:53;101410.72;;;15.66;100.00
54882;BME280;40775;51.448;4.742;2023-05-09T04:53:20;101398.38;;;15.68;100.00
54882;BME280;40775;51.448;4.742;2023-05-09T04:55:48;101400.13;;;15.69;100.00
54882;BME280;40775;51.448;4.742;2023-05-09T04:58:15;101398.38;;;15.68;100.00
54882;BME280;40775;51.448;4.742;2023-05-09T05:00:42;101396.63;;;15.70;100.00
54882;BME280;40775;51.448;4.742;2023-05-09T05:03:10;101393.06;;;15.68;100.00
54882;BME280;40775;51.448;4.742;2023-05-09T05:05:37;101393.97;;;15.72;100.00
54882;BME280;40775;51.448;4.742;2023-05-09T05:08:06;101387.81;;;15.71;100.00
54882;BME280;40775;51.448;4.742;2023-05-09T05:10:34;101392.25;;;15.75;100.00
54882;BME280;40775;51.448;4.742;2023-05-09T05:13:01;101386.97;;;15.77;100.00
54882;BME280;40775;51.448;4.742;2023-05-09T05:15:29;101382.53;;;15.76;100.00
54882;BME280;40775;51.448;4.742;2023-05-09T05:17:56;101384.31;;;15.77;100.00
54882;BME280;40775;51.448;4.742;2023-05-09T05:20:24;101384.28;;;15.74;100.00
54882;BME280;40775;51.448;4.742;2023-05-09T05:22:51;101380.75;;;15.75;100.00
54882;BME280;40775;51.448;4.742;2023-05-09T05:25:20;101382.50;;;15.71;100.00
54882;BME280;40775;51.448;4.742;2023-05-09T05:27:48;101382.50;;;15.70;100.00
54882;BME280;40775;51.448;4.742;2023-05-09T05:30:15;101376.31;;;15.69;100.00
54882;BME280;40775;51.448;4.742;2023-05-09T05:32:43;101376.31;;;15.71;100.00
54882;BME280;40775;51.448;4.742;2023-05-09T05:35:10;101384.25;;;15.66;100.00
54882;BME280;40775;51.448;4.742;2023-05-09T05:37:42;101379.81;;;15.65;100.00
54882;BME280;40775;51.448;4.742;2023-05-09T05:40:10;101374.56;;;15.70;100.00
54882;BME280;40775;51.448;4.742;2023-05-09T05:42:37;101373.66;;;15.68;100.00
54882;BME280;40775;51.448;4.742;2023-05-09T05:45:06;101384.25;;;15.69;100.00
54882;BME280;40775;51.448;4.742;2023-05-09T05:47:34;101385.00;;;17.07;100.00
54882;BME280;40775;51.448;4.742;2023-05-09T05:50:04;101380.66;;;17.65;100.00
54882;BME280;40775;51.448;4.742;2023-05-09T05:52:38;101371.75;;;18.07;100.00
54882;BME280;40775;51.448;4.742;2023-05-09T05:55:06;101356.66;;;18.35;100.00
54882;BME280;40775;51.448;4.742;2023-05-09T05:57:34;101355.69;;;18.54;100.00
54882;BME280;40775;51.448;4.742;2023-05-09T06:00:02;101340.59;;;18.69;100.00
54882;BME280;40775;51.448;4.742;2023-05-09T06:02:32;101348.47;;;18.84;100.00
54882;BME280;40775;51.448;4.742;2023-05-09T06:04:59;101336.88;;;18.96;100.00
54882;BME280;40775;51.448;4.742;2023-05-09T06:07:27;101336.81;;;19.05;100.00
54882;BME280;40775;51.448;4.742;2023-05-09T06:09:54;101333.19;;;19.13;100.00
54882;BME280;40775;51.448;4.742;2023-05-09T06:12:22;101326.97;;;19.21;100.00
54882;BME280;40775;51.448;4.742;2023-05-09T06:14:49;101326.03;;;19.26;100.00
54882;BME280;40775;51.448;4.742;2023-05-09T06:17:16;101321.53;;;19.33;100.00
54882;BME280;40775;51.448;4.742;2023-05-09T06:19:44;101320.59;;;19.37;100.00
54882;BME280;40775;51.448;4.742;2023-05-09T06:22:12;101318.78;;;19.42;100.00
54882;BME280;40775;51.448;4.742;2023-05-09T06:24:39;101317.88;;;19.46;100.00
54882;BME280;40775;51.448;4.742;2023-05-09T06:27:06;101314.28;;;19.50;100.00
54882;BME280;40775;51.448;4.742;2023-05-09T06:29:34;101308.97;;;19.53;100.00
54882;BME280;40775;51.448;4.742;2023-05-09T06:32:02;101307.16;;;19.55;100.00
54882;BME280;40775;51.448;4.742;2023-05-09T06:34:29;101305.38;;;19.57;100.00
54882;BME280;40775;51.448;4.742;2023-05-09T06:36:56;101307.13;;;19.60;100.00
54882;BME280;40775;51.448;4.742;2023-05-09T06:39:24;101298.22;;;19.62;100.00
54882;BME280;40775;51.448;4.742;2023-05-09T06:41:51;101304.41;;;19.66;100.00
54882;BME280;40775;51.448;4.742;2023-05-09T06:44:19;101289.28;;;19.66;100.00
54882;BME280;40775;51.448;4.742;2023-05-09T06:46:46;101286.63;;;19.68;100.00
54882;BME280;40775;51.448;4.742;2023-05-09T06:49:13;101281.25;;;19.71;100.00
54882;BME280;40775;51.448;4.742;2023-05-09T06:51:41;101290.16;;;19.73;100.00
54882;BME280;40775;51.448;4.742;2023-05-09T06:54:08;101285.69;;;19.73;100.00
54882;BME280;40775;51.448;4.742;2023-05-09T06:56:36;101282.13;;;19.74;100.00
54882;BME280;40775;51.448;4.742;2023-05-09T06:59:03;101275.03;;;19.75;100.00
54882;BME280;40775;51.448;4.742;2023-05-09T07:01:31;101274.13;;;19.76;100.00
54882;BME280;40775;51.448;4.742;2023-05-09T07:03:58;101263.47;;;19.76;100.00
54882;BME280;40775;51.448;4.742;2023-05-09T07:06:26;101262.59;;;19.75;100.00
54882;BME280;40775;51.448;4.742;2023-05-09T07:08:53;101270.56;;;19.77;100.00
54882;BME280;40775;51.448;4.742;2023-05-09T07:11:20;101259.88;;;19.80;100.00
54882;BME280;40775;51.448;4.742;2023-05-09T07:13:48;101263.44;;;19.79;100.00
54882;BME280;40775;51.448;4.742;2023-05-09T07:16:15;101251.88;;;19.80;100.00
54882;BME280;40775;51.448;4.742;2023-05-09T07:18:44;101258.97;;;19.80;100.00
54882;BME280;40775;51.448;4.742;2023-05-09T07:21:12;101249.19;;;19.80;100.00
54882;BME280;40775;51.448;4.742;2023-05-09T07:23:39;101248.31;;;19.80;100.00
54882;BME280;40775;51.448;4.742;2023-05-09T07:26:06;101245.63;;;19.81;100.00
54882;BME280;40775;51.448;4.742;2023-05-09T07:28:34;101229.66;;;19.80;100.00
54882;BME280;40775;51.448;4.742;2023-05-09T07:31:01;101237.66;;;19.81;100.00
54882;BME280;40775;51.448;4.742;2023-05-09T07:33:29;101238.53;;;19.82;100.00
54882;BME280;40775;51.448;4.742;2023-05-09T07:35:58;101226.09;;;19.82;100.00
54882;BME280;40775;51.448;4.742;2023-05-09T07:38:25;101227.88;;;19.82;100.00
54882;BME280;40775;51.448;4.742;2023-05-09T07:40:52;101225.19;;;19.83;100.00
54882;BME280;40775;51.448;4.742;2023-05-09T07:43:20;101222.53;;;19.82;100.00
54882;BME280;40775;51.448;4.742;2023-05-09T07:45:47;101220.75;;;19.82;100.00
54882;BME280;40775;51.448;4.742;2023-05-09T07:48:15;101219.84;;;19.83;100.00
54882;BME280;40775;51.448;4.742;2023-05-09T07:50:42;101205.66;;;19.83;100.00
54882;BME280;40775;51.448;4.742;2023-05-09T07:53:10;101215.38;;;19.85;100.00
54882;BME280;40775;51.448;4.742;2023-05-09T07:55:37;101209.19;;;19.83;100.00
54882;BME280;40775;51.448;4.742;2023-05-09T07:58:04;101202.09;;;19.82;100.00
54882;BME280;40775;51.448;4.742;2023-05-09T08:00:32;101204.78;;;19.82;100.00
54882;BME280;40775;51.448;4.742;2023-05-09T08:02:59;101194.94;;;19.86;100.00
54882;BME280;40775;51.448;4.742;2023-05-09T08:05:27;101194.97;;;19.84;100.00
54882;BME280;40775;51.448;4.742;2023-05-09T08:07:54;101189.66;;;19.84;100.00
54882;BME280;40775;51.448;4.742;2023-05-09T08:10:22;101189.66;;;19.84;100.00
54882;BME280;40775;51.448;4.742;2023-05-09T08:12:49;101189.66;;;19.83;100.00
54882;BME280;40775;51.448;4.742;2023-05-09T08:15:17;101179.00;;;19.83;100.00
54882;BME280;40775;51.448;4.742;2023-05-09T08:17:44;101176.31;;;19.84;100.00
54882;BME280;40775;51.448;4.742;2023-05-09T08:20:12;101167.44;;;19.84;100.00
54882;BME280;40775;51.448;4.742;2023-05-09T08:22:40;101164.75;;;19.85;100.00
54882;BME280;40775;51.448;4.742;2023-05-09T08:25:08;101164.75;;;19.85;100.00
54882;BME280;40775;51.448;4.742;2023-05-09T08:27:35;101167.44;;;19.85;100.00
54882;BME280;40775;51.448;4.742;2023-05-09T08:30:04;101162.09;;;19.85;100.00
54882;BME280;40775;51.448;4.742;2023-05-09T08:32:31;101153.22;;;19.85;100.00
54882;BME280;40775;51.448;4.742;2023-05-09T08:34:59;101153.25;;;19.83;100.00
54882;BME280;40775;51.448;4.742;2023-05-09T08:37:26;101148.78;;;19.84;100.00
54882;BME280;40775;51.448;4.742;2023-05-09T08:39:55;101147.91;;;19.83;100.00
54882;BME280;40775;51.448;4.742;2023-05-09T08:42:22;101142.59;;;19.83;100.00
54882;BME280;40775;51.448;4.742;2023-05-09T08:44:52;101143.44;;;19.85;100.00
54882;BME280;40775;51.448;4.742;2023-05-09T08:47:20;101142.53;;;19.86;100.00
54882;BME280;40775;51.448;4.742;2023-05-09T08:49:50;101135.44;;;19.85;100.00
54882;BME280;40775;51.448;4.742;2023-05-09T08:52:17;101135.44;;;19.85;100.00
54882;BME280;40775;51.448;4.742;2023-05-09T08:54:46;101135.44;;;19.85;100.00
54882;BME280;40775;51.448;4.742;2023-05-09T08:57:13;101128.34;;;19.86;100.00
54882;BME280;40775;51.448;4.742;2023-05-09T08:59:42;101127.47;;;19.84;100.00
54882;BME280;40775;51.448;4.742;2023-05-09T09:02:11;101123.91;;;19.85;100.00
54882;BME280;40775;51.448;4.742;2023-05-09T09:04:40;101119.47;;;19.85;100.00
54882;BME280;40775;51.448;4.742;2023-05-09T09:07:09;101116.81;;;19.84;100.00
54882;BME280;40775;51.448;4.742;2023-05-09T09:09:45;101119.47;;;19.85;100.00
54882;BME280;40775;51.448;4.742;2023-05-09T09:12:14;101123.03;;;19.84;100.00
54882;BME280;40775;51.448;4.742;2023-05-09T09:14:51;101126.56;;;19.86;100.00
54882;BME280;40775;51.448;4.742;2023-05-09T09:17:23;101114.13;;;19.85;100.00
54882;BME280;40775;51.448;4.742;2023-05-09T09:19:54;101116.81;;;19.84;100.00
54882;BME280;40775;51.448;4.742;2023-05-09T09:22:23;101111.50;;;19.84;100.00
54882;BME280;40775;51.448;4.742;2023-05-09T09:24:51;101110.63;;;19.83;100.00
54882;BME280;40775;51.448;4.742;2023-05-09T09:27:18;101117.72;;;19.84;100.00
54882;BME280;40775;51.448;4.742;2023-05-09T09:29:45;101108.84;;;19.82;100.00
54882;BME280;40775;51.448;4.742;2023-05-09T09:32:13;101110.63;;;19.83;100.00
54882;BME280;40775;51.448;4.742;2023-05-09T09:34:40;101105.28;;;19.83;100.00
54882;BME280;40775;51.448;4.742;2023-05-09T09:37:08;101110.63;;;19.83;100.00
54882;BME280;40775;51.448;4.742;2023-05-09T09:39:35;101107.06;;;19.83;100.00
54882;BME280;40775;51.448;4.742;2023-05-09T09:42:20;101105.28;;;19.83;100.00
54882;BME280;40775;51.448;4.742;2023-05-09T09:45:00;101104.38;;;19.84;100.00
54882;BME280;40775;51.448;4.742;2023-05-09T09:47:32;101112.41;;;19.81;100.00
54882;BME280;40775;51.448;4.742;2023-05-09T09:50:09;101100.84;;;19.84;100.00
54882;BME280;40775;51.448;4.742;2023-05-09T09:52:49;101105.28;;;19.83;100.00
54882;BME280;40775;51.448;4.742;2023-05-09T09:55:17;101097.28;;;19.83;100.00
54882;BME280;40775;51.448;4.742;2023-05-09T09:57:46;101097.34;;;19.80;100.00
54882;BME280;40775;51.448;4.742;2023-05-09T10:00:16;101093.75;;;19.83;100.00
54882;BME280;40775;51.448;4.742;2023-05-09T10:02:51;101090.22;;;19.82;100.00
54882;BME280;40775;51.448;4.742;2023-05-09T10:05:30;101097.28;;;19.85;100.00
54882;BME280;40775;51.448;4.742;2023-05-09T10:07:59;101090.19;;;19.84;100.00
54882;BME280;40775;51.448;4.742;2023-05-09T10:10:28;101090.22;;;19.82;100.00
54882;BME280;40775;51.448;4.742;2023-05-09T10:12:58;101082.22;;;19.82;100.00
54882;BME280;40775;51.448;4.742;2023-05-09T10:15:30;101083.06;;;19.84;100.00
54882;BME280;40775;51.448;4.742;2023-05-09T10:18:11;101075.06;;;19.84;100.00
54882;BME280;40775;51.448;4.742;2023-05-09T10:20:43;101076.88;;;19.82;100.00
54882;BME280;40775;51.448;4.742;2023-05-09T10:23:10;101075.09;;;19.83;100.00
54882;BME280;40775;51.448;4.742;2023-05-09T10:25:46;101079.53;;;19.82;100.00
54882;BME280;40775;51.448;4.742;2023-05-09T10:28:19;101076.00;;;19.82;100.00
54882;BME280;40775;51.448;4.742;2023-05-09T10:31:26;101069.78;;;19.81;100.00
54882;BME280;40775;51.448;4.742;2023-05-09T10:33:54;101062.66;;;19.83;100.00
54882;BME280;40775;51.448;4.742;2023-05-09T10:36:22;101068.88;;;19.82;100.00
54882;BME280;40775;51.448;4.742;2023-05-09T10:38:53;101059.13;;;19.81;100.00
54882;BME280;40775;51.448;4.742;2023-05-09T10:41:21;101051.16;;;19.81;100.00
54882;BME280;40775;51.448;4.742;2023-05-09T10:43:48;101061.81;;;19.81;100.00
54882;BME280;40775;51.448;4.742;2023-05-09T10:46:16;101052.00;;;19.83;100.00
54882;BME280;40775;51.448;4.742;2023-05-09T10:48:44;101050.25;;;19.82;100.00
54882;BME280;40775;51.448;4.742;2023-05-09T10:51:14;101044.03;;;19.82;100.00
54882;BME280;40775;51.448;4.742;2023-05-09T10:53:46;101043.13;;;19.83;100.00
54882;BME280;40775;51.448;4.742;2023-05-09T10:56:33;101044.03;;;19.82;100.00
54882;BME280;40775;51.448;4.742;2023-05-09T10:59:06;101037.81;;;19.81;100.00
54882;BME280;40775;51.448;4.742;2023-05-09T11:01:57;101036.03;;;19.82;100.00
54882;BME280;40775;51.448;4.742;2023-05-09T11:04:30;101032.50;;;19.81;100.00
54882;BME280;40775;51.448;4.742;2023-05-09T11:06:59;101029.84;;;19.81;100.00
54882;BME280;40775;51.448;4.742;2023-05-09T11:12:12;101026.28;;;19.81;100.00
54882;BME280;40775;51.448;4.742;2023-05-09T11:14:46;101020.06;;;19.82;100.00
54882;BME280;40775;51.448;4.742;2023-05-09T11:22:20;101019.16;;;19.81;100.00
54882;BME280;40775;51.448;4.742;2023-05-09T11:24:50;101010.28;;;19.82;100.00
54882;BME280;40775;51.448;4.742;2023-05-09T11:27:24;101012.97;;;19.81;100.00
54882;BME280;40775;51.448;4.742;2023-05-09T11:29:57;101006.75;;;19.80;100.00
54882;BME280;40775;51.448;4.742;2023-05-09T11:32:31;101006.72;;;19.82;100.00
54882;BME280;40775;51.448;4.742;2023-05-09T11:35:06;101007.59;;;19.82;100.00
54882;BME280;40775;51.448;4.742;2023-05-09T11:37:49;101005.00;;;19.79;100.00
54882;BME280;40775;51.448;4.742;2023-05-09T11:40:18;100991.66;;;19.81;100.00
54882;BME280;40775;51.448;4.742;2023-05-09T11:42:48;100997.88;;;19.80;100.00
54882;BME280;40775;51.448;4.742;2023-05-09T11:45:16;100990.78;;;19.80;100.00
54882;BME280;40775;51.448;4.742;2023-05-09T11:47:47;100997.88;;;19.80;100.00
54882;BME280;40775;51.448;4.742;2023-05-09T11:50:17;100992.56;;;19.80;100.00
54882;BME280;40775;51.448;4.742;2023-05-09T11:52:46;100996.97;;;19.81;100.00
54882;BME280;40775;51.448;4.742;2023-05-09T11:55:16;100992.56;;;19.80;100.00
54882;BME280;40775;51.448;4.742;2023-05-09T11:57:48;100994.34;;;19.79;100.00
54882;BME280;40775;51.448;4.742;2023-05-09T12:00:17;100989.91;;;19.78;100.00
54882;BME280;40775;51.448;4.742;2023-05-09T12:02:45;100989.00;;;19.79;100.00
54882;BME280;40775;51.448;4.742;2023-05-09T12:05:15;100980.13;;;19.79;100.00
54882;BME280;40775;51.448;4.742;2023-05-09T12:07:44;100981.03;;;19.79;100.00
54882;BME280;40775;51.448;4.742;2023-05-09T12:10:12;100976.59;;;19.78;100.00
54882;BME280;40775;51.448;4.742;2023-05-09T12:12:47;100977.50;;;19.77;100.00
54882;BME280;40775;51.448;4.742;2023-05-09T12:15:15;100979.25;;;19.78;100.00
54882;BME280;40775;51.448;4.742;2023-05-09T12:17:44;100974.81;;;19.79;100.00
54882;BME280;40775;51.448;4.742;2023-05-09T12:20:15;100980.13;;;19.79;100.00
54882;BME280;40775;51.448;4.742;2023-05-09T12:22:43;100975.69;;;19.79;100.00
54882;BME280;40775;51.448;4.742;2023-05-09T12:25:11;100969.47;;;19.80;100.00
54882;BME280;40775;51.448;4.742;2023-05-09T12:27:39;100965.06;;;19.78;100.00
54882;BME280;40775;51.448;4.742;2023-05-09T12:30:08;100962.38;;;19.79;100.00
54882;BME280;40775;51.448;4.742;2023-05-09T12:32:40;100965.03;;;19.79;100.00
54882;BME280;40775;51.448;4.742;2023-05-09T12:35:10;100960.63;;;19.78;100.00
54882;BME280;40775;51.448;4.742;2023-05-09T12:37:37;100955.31;;;19.77;100.00
54882;BME280;40775;51.448;4.742;2023-05-09T12:42:34;100956.19;;;19.77;100.00
54882;BME280;40775;51.448;4.742;2023-05-09T12:45:06;100952.63;;;19.78;100.00
54882;BME280;40775;51.448;4.742;2023-05-09T12:47:34;100957.06;;;19.78;100.00
54882;BME280;40775;51.448;4.742;2023-05-09T12:50:04;100950.84;;;19.77;100.00
54882;BME280;40775;51.448;4.742;2023-05-09T12:52:39;100946.41;;;19.78;100.00
54882;BME280;40775;51.448;4.742;2023-05-09T12:55:28;100942.84;;;19.79;100.00
54882;BME280;40775;51.448;4.742;2023-05-09T12:58:02;100943.75;;;19.78;100.00
54882;BME280;40775;51.448;4.742;2023-05-09T13:00:41;100946.41;;;19.78;100.00
54882;BME280;40775;51.448;4.742;2023-05-09T13:03:22;100943.72;;;19.79;100.00
54882;BME280;40775;51.448;4.742;2023-05-09T13:05:59;100943.75;;;19.78;100.00
54882;BME280;40775;51.448;4.742;2023-05-09T13:08:27;100939.28;;;19.78;100.00
54882;BME280;40775;51.448;4.742;2023-05-09T13:10:56;100946.41;;;19.78;100.00
54882;BME280;40775;51.448;4.742;2023-05-09T13:13:41;100945.50;;;19.79;100.00
54882;BME280;40775;51.448;4.742;2023-05-09T13:16:09;100945.53;;;19.77;100.00